Wervik, Belgium
Current Conditions -  °F | °C
As of 11:30 PM on Tuesday 21 Oct 2014 (Local Time) from LFQQ Reporting Station
Scattered Clouds Scattered Clouds  
Wind Chill: 41°   Ceiling: Unl
Heat Index: 48°   Visibility: 6mi
Dew Point: 37°   Wind: 22mph
Humidity: 66%   Direction: 280°W
Pressure: 29.97"   Gusts: NA
Location:  50.78°N, 3.04°E
Report Text: LFQQ 212130Z 28019KT 9999 SCT045 09/03 Q1015 TEMPO 29020G35KT
Loading
Personal Weather Stations






























Interactive Weather Map
Tropical Storm Tracking
New forecast layout! Learn more

10-Day Weather Forecast

Advertisements
Track Severe Weather on mobile